createdAt,value
2022-11-18T00:00:57.710Z,43.61
2022-11-18T00:03:25.100Z,43.84
2022-11-18T00:05:52.911Z,43.53
2022-11-18T00:08:20.006Z,43.41
2022-11-18T00:10:47.354Z,43.36
2022-11-18T00:13:33.183Z,42.99
2022-11-18T00:16:01.720Z,43.10
2022-11-18T00:18:28.836Z,43.06
2022-11-18T00:20:55.941Z,42.71
2022-11-18T00:23:23.310Z,42.50
2022-11-18T00:25:50.449Z,42.39
2022-11-18T00:28:17.536Z,42.38
2022-11-18T00:30:44.919Z,42.39
2022-11-18T00:33:12.034Z,42.45
2022-11-18T00:35:39.163Z,42.65
2022-11-18T00:38:06.559Z,42.47
2022-11-18T00:40:33.702Z,42.47
2022-11-18T00:43:00.844Z,42.36
2022-11-18T00:45:29.230Z,42.72
2022-11-18T00:47:56.643Z,42.64
2022-11-18T00:50:24.376Z,42.69
2022-11-18T00:52:51.728Z,42.37
2022-11-18T00:55:18.845Z,42.71
2022-11-18T00:57:45.968Z,42.86
2022-11-18T01:00:13.442Z,43.27
2022-11-18T01:02:40.677Z,43.25
2022-11-18T01:05:07.899Z,44.25
2022-11-18T01:07:35.337Z,44.04
2022-11-18T01:10:02.499Z,43.91
2022-11-18T01:12:53.955Z,43.70
2022-11-18T01:15:21.771Z,44.08
2022-11-18T01:17:48.888Z,44.95
2022-11-18T01:20:16.055Z,45.38
2022-11-18T01:22:43.453Z,45.73
2022-11-18T01:25:10.590Z,45.13
2022-11-18T01:27:37.698Z,44.76
2022-11-18T01:30:05.292Z,44.87
2022-11-18T01:32:32.429Z,44.57
2022-11-18T01:34:59.547Z,44.21
2022-11-18T01:37:26.912Z,43.74
2022-11-18T01:39:54.017Z,44.35
2022-11-18T01:42:21.110Z,45.29
2022-11-18T01:45:05.243Z,45.57
2022-11-18T01:47:33.238Z,45.01
2022-11-18T01:50:00.619Z,44.56
2022-11-18T01:52:27.722Z,44.24
2022-11-18T01:54:55.944Z,44.29
2022-11-18T01:57:23.426Z,43.85
2022-11-18T01:59:50.737Z,43.99
2022-11-18T02:02:17.855Z,43.63
2022-11-18T02:04:45.862Z,43.48
2022-11-18T02:07:13.333Z,43.47
2022-11-18T02:09:40.498Z,43.53
2022-11-18T02:12:07.662Z,44.82
2022-11-18T02:14:38.952Z,45.65
2022-11-18T02:17:15.417Z,45.27
2022-11-18T02:19:49.058Z,44.70
2022-11-18T02:22:28.177Z,45.48
2022-11-18T02:25:14.646Z,45.47
2022-11-18T02:27:50.726Z,47.07
2022-11-18T02:30:18.117Z,46.80
2022-11-18T02:32:49.234Z,47.82
2022-11-18T02:35:19.175Z,47.54
2022-11-18T02:37:55.615Z,46.91
2022-11-18T02:40:25.245Z,46.53
2022-11-18T02:42:54.657Z,50.66
2022-11-18T02:45:22.975Z,48.24
2022-11-18T02:47:50.080Z,47.53
2022-11-18T02:50:18.429Z,49.12
2022-11-18T02:52:45.601Z,49.60
2022-11-18T02:55:12.946Z,48.21
2022-11-18T02:57:40.329Z,47.78
2022-11-18T03:00:07.747Z,47.69
2022-11-18T03:02:41.908Z,47.45
2022-11-18T03:05:10.708Z,47.08
2022-11-18T03:07:37.870Z,46.97
2022-11-18T03:10:05.092Z,46.61
2022-11-18T03:12:38.632Z,46.55
2022-11-18T03:15:08.540Z,46.49
2022-11-18T03:17:42.034Z,46.80
2022-11-18T03:20:20.118Z,46.53
2022-11-18T03:22:59.623Z,46.19
2022-11-18T03:25:53.018Z,47.03
2022-11-18T03:28:20.302Z,46.64
2022-11-18T03:31:10.541Z,45.98
2022-11-18T03:33:42.695Z,45.47
2022-11-18T03:36:10.097Z,45.26
2022-11-18T03:38:38.348Z,46.35
2022-11-18T03:41:06.483Z,45.77
2022-11-18T03:43:34.964Z,45.28
2022-11-18T03:46:09.327Z,44.96
2022-11-18T03:48:38.708Z,44.84
2022-11-18T03:51:07.074Z,45.19
2022-11-18T03:53:39.853Z,45.08
2022-11-18T03:56:15.782Z,46.42
2022-11-18T03:58:50.064Z,45.36
2022-11-18T04:01:43.887Z,45.27
2022-11-18T04:04:11.525Z,46.03
2022-11-18T04:06:41.768Z,47.31
2022-11-18T04:09:13.862Z,46.88
2022-11-18T04:12:01.608Z,46.61
2022-11-18T04:14:29.192Z,48.31
2022-11-18T04:16:56.628Z,47.63
2022-11-18T04:19:23.910Z,47.28
2022-11-18T04:21:51.198Z,47.09
2022-11-18T04:24:18.617Z,45.82
2022-11-18T04:26:45.815Z,45.52
2022-11-18T04:29:12.941Z,45.86
2022-11-18T04:31:40.318Z,48.66
2022-11-18T04:34:07.464Z,49.05
2022-11-18T04:36:34.572Z,48.31
2022-11-18T04:39:01.942Z,47.65
2022-11-18T04:41:47.496Z,46.91
2022-11-18T04:44:14.882Z,46.78
2022-11-18T04:46:42.271Z,46.14
2022-11-18T04:49:09.740Z,46.31
2022-11-18T04:51:37.114Z,46.26
2022-11-18T04:54:04.402Z,47.03
2022-11-18T04:56:31.676Z,46.14
2022-11-18T04:59:00.121Z,46.19
2022-11-18T05:01:27.583Z,46.19
2022-11-18T05:03:54.854Z,45.84
2022-11-18T05:06:22.547Z,45.69
2022-11-18T05:08:49.795Z,45.66
2022-11-18T05:11:35.701Z,47.86
2022-11-18T05:14:03.067Z,47.04
2022-11-18T05:16:30.163Z,48.04
2022-11-18T05:18:57.243Z,48.12
2022-11-18T05:21:24.682Z,47.76
2022-11-18T05:23:51.778Z,48.17
2022-11-18T05:26:18.879Z,47.80
2022-11-18T05:28:46.240Z,48.37
2022-11-18T05:31:14.635Z,47.43
2022-11-18T05:33:42.124Z,47.03
2022-11-18T05:36:10.513Z,46.90
2022-11-18T05:38:37.617Z,47.96
2022-11-18T05:41:04.962Z,47.00
2022-11-18T05:43:32.563Z,48.45
2022-11-18T05:45:59.991Z,47.66
2022-11-18T05:48:27.126Z,47.05
2022-11-18T05:50:55.028Z,47.43
2022-11-18T05:53:22.900Z,51.43
2022-11-18T05:56:07.659Z,54.28
2022-11-18T05:58:35.035Z,51.96
2022-11-18T06:01:03.536Z,53.24
2022-11-18T06:03:31.551Z,57.38
2022-11-18T06:05:59.589Z,54.51
2022-11-18T06:08:27.320Z,54.58
2022-11-18T06:10:54.733Z,52.80
2022-11-18T06:13:26.211Z,53.03
2022-11-18T06:15:53.325Z,52.58
2022-11-18T06:18:20.680Z,51.05
2022-11-18T06:20:47.798Z,51.10
2022-11-18T06:23:14.915Z,50.77
2022-11-18T06:25:42.273Z,52.15
2022-11-18T06:28:09.762Z,53.10
2022-11-18T06:30:36.880Z,52.28
2022-11-18T06:33:04.252Z,53.46
2022-11-18T06:35:31.406Z,53.58
2022-11-18T06:37:58.523Z,51.29
2022-11-18T06:40:29.257Z,53.40
2022-11-18T06:43:17.381Z,54.80
2022-11-18T06:46:08.950Z,53.04
2022-11-18T06:48:36.971Z,52.41
2022-11-18T06:51:05.154Z,53.74
2022-11-18T06:53:33.171Z,53.12
2022-11-18T06:56:07.134Z,52.21
2022-11-18T06:58:34.593Z,54.68
2022-11-18T07:01:11.748Z,53.15
2022-11-18T07:03:40.103Z,55.02
2022-11-18T07:06:07.697Z,52.24
2022-11-18T07:08:35.928Z,53.38
2022-11-18T07:11:05.346Z,55.66
2022-11-18T07:13:32.792Z,55.76
2022-11-18T07:16:07.046Z,55.52
2022-11-18T07:18:35.065Z,55.40
2022-11-18T07:21:03.001Z,57.06
2022-11-18T07:23:31.168Z,54.99
2022-11-18T07:25:58.651Z,56.04
2022-11-18T07:28:25.940Z,57.78
2022-11-18T07:30:53.056Z,58.91
2022-11-18T07:33:20.459Z,57.52
2022-11-18T07:35:47.577Z,59.49
2022-11-18T07:38:14.702Z,59.59
2022-11-18T07:40:42.066Z,56.78
2022-11-18T07:43:09.299Z,57.93
2022-11-18T07:45:36.573Z,55.86
2022-11-18T07:48:03.985Z,56.41
2022-11-18T07:50:31.115Z,55.67
2022-11-18T07:52:58.271Z,56.47
2022-11-18T07:55:30.829Z,55.70
2022-11-18T07:57:59.193Z,56.38
2022-11-18T08:00:26.585Z,55.39
2022-11-18T08:02:53.965Z,57.61
2022-11-18T08:05:21.158Z,58.08
2022-11-18T08:07:48.344Z,59.63
2022-11-18T08:10:15.900Z,61.61
2022-11-18T08:12:43.022Z,59.71
2022-11-18T08:15:10.301Z,60.88
2022-11-18T08:17:37.690Z,58.35
2022-11-18T08:20:04.921Z,58.82
2022-11-18T08:22:32.042Z,60.13
2022-11-18T08:24:59.440Z,61.79
2022-11-18T08:27:26.549Z,58.36
2022-11-18T08:29:53.640Z,59.73
2022-11-18T08:32:21.051Z,57.92
2022-11-18T08:34:48.161Z,57.27
2022-11-18T08:37:15.273Z,57.92
2022-11-18T08:39:42.632Z,58.32
2022-11-18T08:42:10.025Z,58.26
2022-11-18T08:44:37.131Z,56.79
2022-11-18T08:47:04.572Z,56.42
2022-11-18T08:49:32.655Z,57.65
2022-11-18T08:52:00.763Z,58.44
2022-11-18T08:54:28.143Z,56.60
2022-11-18T08:56:55.756Z,54.92
2022-11-18T08:59:23.890Z,55.27
2022-11-18T09:01:51.375Z,54.40
2022-11-18T09:04:18.560Z,55.55
2022-11-18T09:06:45.680Z,57.88
2022-11-18T09:09:13.054Z,60.08
2022-11-18T09:11:40.280Z,61.04
2022-11-18T09:15:11.938Z,59.26
2022-11-18T09:16:54.780Z,56.80
2022-11-18T09:19:46.049Z,58.81
2022-11-18T09:22:09.411Z,60.72
2022-11-18T09:24:37.352Z,60.87
2022-11-18T09:27:05.530Z,59.75
2022-11-18T09:29:32.904Z,61.53
2022-11-18T09:32:02.076Z,58.71
2022-11-18T09:34:29.371Z,60.11
2022-11-18T09:36:56.926Z,62.71
2022-11-18T09:39:24.696Z,60.52
2022-11-18T09:41:54.080Z,60.39
2022-11-18T09:44:21.400Z,59.58
2022-11-18T09:46:48.434Z,59.99
2022-11-18T09:49:16.794Z,60.05
2022-11-18T09:51:48.115Z,57.59
2022-11-18T09:54:25.829Z,58.64
2022-11-18T09:56:53.680Z,58.87
2022-11-18T09:59:21.834Z,62.72
2022-11-18T10:01:49.246Z,63.06
2022-11-18T10:04:17.208Z,63.51
2022-11-18T10:06:45.047Z,62.47
2022-11-18T10:09:21.149Z,62.94
2022-11-18T10:12:00.549Z,59.07
2022-11-18T10:14:27.603Z,60.19
2022-11-18T10:16:57.942Z,61.87
2022-11-18T10:19:31.585Z,62.03
2022-11-18T10:22:20.975Z,60.86
2022-11-18T10:24:50.488Z,61.60
2022-11-18T10:27:17.946Z,60.68
2022-11-18T10:29:46.029Z,60.87
2022-11-18T10:32:16.520Z,62.35
2022-11-18T10:34:51.644Z,61.04
2022-11-18T10:37:34.500Z,60.35
2022-11-18T10:40:10.500Z,60.15
2022-11-18T10:42:41.630Z,61.93
2022-11-18T10:45:25.396Z,61.07
2022-11-18T10:47:58.726Z,61.26
2022-11-18T10:50:28.637Z,62.42
2022-11-18T10:52:56.007Z,61.20
2022-11-18T10:55:23.900Z,60.35
2022-11-18T10:57:52.693Z,60.06
2022-11-18T11:00:32.220Z,56.84
2022-11-18T11:02:59.337Z,59.05
2022-11-18T11:05:26.815Z,57.47
2022-11-18T11:08:34.556Z,56.01
2022-11-18T11:10:58.200Z,54.34
2022-11-18T11:13:26.383Z,54.52
2022-11-18T11:15:54.256Z,54.08
2022-11-18T11:18:40.454Z,53.36
2022-11-18T11:21:17.737Z,53.14
2022-11-18T11:23:45.124Z,52.02
2022-11-18T11:29:20.637Z,51.19
2022-11-18T11:32:07.307Z,52.38
2022-11-18T11:34:50.432Z,51.09
2022-11-18T11:37:35.458Z,52.86
2022-11-18T11:40:24.292Z,51.69
2022-11-18T11:43:10.304Z,53.63
2022-11-18T11:45:57.631Z,53.25
2022-11-18T11:48:35.649Z,54.54
2022-11-18T11:51:06.349Z,52.45
2022-11-18T11:54:01.018Z,52.79
2022-11-18T11:56:30.933Z,54.65
2022-11-18T11:58:58.232Z,52.66
2022-11-18T12:01:34.304Z,53.21
2022-11-18T12:04:15.258Z,54.39
2022-11-18T12:06:44.384Z,53.70
2022-11-18T12:09:13.375Z,54.68
2022-11-18T12:11:41.498Z,55.37
2022-11-18T12:14:27.397Z,54.91
2022-11-18T12:17:07.079Z,53.14
2022-11-18T12:19:36.985Z,51.58
2022-11-18T12:22:05.312Z,52.68
2022-11-18T12:24:34.283Z,53.57
2022-11-18T12:27:05.619Z,53.34
2022-11-18T12:29:36.142Z,52.32
2022-11-18T12:32:03.729Z,51.26
2022-11-18T12:34:33.853Z,51.38
2022-11-18T12:37:19.533Z,50.73
2022-11-18T12:39:47.962Z,52.07
2022-11-18T12:42:53.087Z,52.87
2022-11-18T12:45:38.653Z,51.77
2022-11-18T12:48:41.471Z,52.14
2022-11-18T12:51:11.394Z,53.40
2022-11-18T12:53:39.460Z,53.15
2022-11-18T12:56:19.157Z,55.55
2022-11-18T12:58:53.738Z,52.18
2022-11-18T13:01:22.397Z,51.33
2022-11-18T13:03:50.060Z,51.55
2022-11-18T13:06:20.643Z,49.61
2022-11-18T13:08:51.707Z,49.43
2022-11-18T13:11:37.907Z,49.41
2022-11-18T13:14:24.085Z,48.80
2022-11-18T13:17:09.975Z,48.28
2022-11-18T13:19:37.083Z,48.74
2022-11-18T13:22:23.339Z,48.16
2022-11-18T13:24:51.366Z,47.96
2022-11-18T13:27:22.382Z,49.34
2022-11-18T13:29:55.600Z,48.68
2022-11-18T13:32:24.135Z,48.74
2022-11-18T13:34:52.055Z,48.53
2022-11-18T13:37:22.906Z,49.44
2022-11-18T13:39:50.402Z,49.35
2022-11-18T13:42:24.481Z,48.90
2022-11-18T13:44:52.845Z,49.38
2022-11-18T13:47:22.654Z,49.30
2022-11-18T13:50:02.883Z,48.52
2022-11-18T13:52:31.946Z,48.19
2022-11-18T13:55:00.167Z,48.76
2022-11-18T13:57:28.209Z,50.12
2022-11-18T13:59:55.715Z,50.40
2022-11-18T14:02:22.822Z,50.28
2022-11-18T14:04:52.051Z,50.78
2022-11-18T14:07:28.032Z,51.18
2022-11-18T14:09:58.563Z,50.48
2022-11-18T14:15:15.059Z,50.82
2022-11-18T14:17:52.856Z,50.84
2022-11-18T14:20:20.271Z,51.28
2022-11-18T14:22:51.275Z,50.27
2022-11-18T14:25:26.121Z,50.21
2022-11-18T14:27:57.184Z,51.18
2022-11-18T14:30:28.478Z,50.34
2022-11-18T14:33:07.893Z,50.78
2022-11-18T14:35:35.238Z,51.59
2022-11-18T14:40:54.257Z,52.04
2022-11-18T14:43:21.761Z,50.57
2022-11-18T14:45:48.874Z,49.07
2022-11-18T14:48:15.988Z,48.66
2022-11-18T14:50:43.350Z,49.16
2022-11-18T14:53:11.534Z,49.49
2022-11-18T14:55:39.021Z,52.28
2022-11-18T14:58:08.734Z,49.91
2022-11-18T15:00:36.022Z,48.46
2022-11-18T15:03:03.372Z,49.79
2022-11-18T15:05:31.038Z,49.58
2022-11-18T15:07:58.154Z,48.40
2022-11-18T15:10:25.255Z,48.29
2022-11-18T15:12:52.632Z,47.58
2022-11-18T15:15:19.736Z,47.63
2022-11-18T15:17:49.717Z,47.40
2022-11-18T15:20:21.907Z,47.51
2022-11-18T15:22:49.057Z,47.57
2022-11-18T15:25:16.177Z,47.11
2022-11-18T15:27:43.545Z,46.85
2022-11-18T15:30:13.015Z,47.62
2022-11-18T15:32:40.645Z,46.42
2022-11-18T15:35:08.654Z,46.85
2022-11-18T15:37:35.793Z,47.36
2022-11-18T15:40:02.930Z,47.28
2022-11-18T15:42:30.369Z,46.32
2022-11-18T15:44:57.492Z,47.49
2022-11-18T15:47:25.220Z,49.74
2022-11-18T15:49:52.611Z,48.75
2022-11-18T15:52:19.710Z,47.29
2022-11-18T15:54:46.858Z,47.66
2022-11-18T15:57:15.254Z,47.35
2022-11-18T15:59:42.355Z,47.97
2022-11-18T16:02:10.156Z,48.64
2022-11-18T16:04:37.827Z,49.18
2022-11-18T16:07:05.092Z,49.50
2022-11-18T16:09:51.141Z,47.51
2022-11-18T16:12:37.138Z,47.23
2022-11-18T16:15:23.112Z,47.21
2022-11-18T16:17:50.481Z,46.96
2022-11-18T16:20:17.599Z,47.13
2022-11-18T16:22:44.723Z,46.63
2022-11-18T16:25:12.216Z,46.33
2022-11-18T16:27:39.620Z,46.13
2022-11-18T16:30:06.986Z,46.11
2022-11-18T16:32:34.393Z,45.29
2022-11-18T16:35:01.873Z,45.78
2022-11-18T16:37:30.281Z,45.32
2022-11-18T16:39:57.679Z,45.70
2022-11-18T16:42:24.793Z,45.13
2022-11-18T16:44:51.910Z,44.68
2022-11-18T16:47:19.324Z,44.96
2022-11-18T16:49:47.032Z,44.71
2022-11-18T16:52:14.479Z,45.34
2022-11-18T16:54:45.609Z,45.02
2022-11-18T16:57:13.167Z,44.08
2022-11-18T16:59:40.850Z,45.29
2022-11-18T17:02:10.363Z,44.98
2022-11-18T17:04:38.756Z,45.09
2022-11-18T17:07:05.952Z,45.79
2022-11-18T17:09:33.356Z,44.78
2022-11-18T17:12:00.488Z,45.31
2022-11-18T17:14:27.927Z,45.13
2022-11-18T17:16:55.531Z,44.92
2022-11-18T17:19:23.768Z,45.99
2022-11-18T17:21:51.985Z,45.48
2022-11-18T17:24:20.856Z,46.94
2022-11-18T17:26:52.416Z,48.43
2022-11-18T17:29:20.854Z,48.99
2022-11-18T17:31:49.395Z,50.63
2022-11-18T17:34:17.231Z,50.04
2022-11-18T17:36:45.497Z,48.53
2022-11-18T17:39:13.748Z,51.76
2022-11-18T17:41:59.412Z,52.10
2022-11-18T17:44:27.375Z,54.14
2022-11-18T17:46:54.756Z,53.21
2022-11-18T17:49:24.893Z,54.44
2022-11-18T17:51:52.292Z,54.52
2022-11-18T17:54:21.576Z,53.86
2022-11-18T17:56:49.960Z,56.66
2022-11-18T17:59:17.687Z,55.63
2022-11-18T18:01:46.418Z,55.00
2022-11-18T18:04:14.655Z,55.19
2022-11-18T18:06:42.553Z,53.56
2022-11-18T18:09:10.557Z,55.69
2022-11-18T18:11:38.413Z,55.86
2022-11-18T18:14:13.197Z,55.47
2022-11-18T18:16:44.182Z,56.73
2022-11-18T18:19:12.469Z,56.87
2022-11-18T18:21:42.173Z,55.33
2022-11-18T18:24:10.386Z,54.77
2022-11-18T18:26:38.209Z,55.89
2022-11-18T18:29:05.528Z,53.73
2022-11-18T18:31:34.048Z,52.93
2022-11-18T18:34:01.455Z,52.28
2022-11-18T18:36:28.983Z,54.05
2022-11-18T18:39:00.188Z,52.81
2022-11-18T18:41:27.844Z,53.03
2022-11-18T18:43:56.541Z,53.00
2022-11-18T18:46:32.071Z,52.02
2022-11-18T18:49:01.948Z,53.32
2022-11-18T18:51:31.561Z,51.14
2022-11-18T18:53:58.819Z,51.52
2022-11-18T18:56:26.204Z,51.27
2022-11-18T18:58:56.612Z,50.07
2022-11-18T19:01:29.730Z,50.38
2022-11-18T19:03:58.213Z,50.10
2022-11-18T19:06:51.995Z,50.02
2022-11-18T19:09:14.512Z,48.74
2022-11-18T19:12:01.092Z,52.07
2022-11-18T19:14:28.730Z,52.79
2022-11-18T19:16:56.018Z,53.38
2022-11-18T19:19:43.560Z,53.74
2022-11-18T19:22:12.328Z,53.09
2022-11-18T19:24:49.670Z,52.91
2022-11-18T19:27:19.035Z,53.29
2022-11-18T19:29:46.414Z,52.34
2022-11-18T19:32:13.671Z,51.58
2022-11-18T19:34:41.645Z,51.36
2022-11-18T19:37:09.329Z,53.77
2022-11-18T19:39:38.829Z,52.02
2022-11-18T19:42:06.683Z,52.13
2022-11-18T19:44:35.202Z,51.70
2022-11-18T19:47:02.799Z,52.44
2022-11-18T19:49:31.855Z,53.57
2022-11-18T19:51:59.345Z,53.03
2022-11-18T19:54:26.969Z,51.97
2022-11-18T19:56:54.895Z,51.91
2022-11-18T19:59:22.609Z,53.76
2022-11-18T20:01:50.277Z,54.23
2022-11-18T20:04:18.229Z,56.73
2022-11-18T20:06:47.143Z,55.46
2022-11-18T20:09:14.645Z,54.95
2022-11-18T20:11:43.560Z,53.50
2022-11-18T20:14:11.673Z,54.82
2022-11-18T20:16:39.860Z,56.70
2022-11-18T20:19:10.699Z,58.60
2022-11-18T20:21:39.428Z,56.06
2022-11-18T20:24:07.946Z,55.23
2022-11-18T20:26:37.009Z,58.42
2022-11-18T20:29:04.542Z,57.04
2022-11-18T20:31:34.166Z,59.58
2022-11-18T20:34:02.465Z,57.82
2022-11-18T20:36:31.860Z,55.76
2022-11-18T20:39:00.758Z,59.21
2022-11-18T20:41:30.567Z,56.38
2022-11-18T20:43:58.230Z,55.35
2022-11-18T20:46:26.151Z,58.10
2022-11-18T20:48:53.982Z,57.86
2022-11-18T20:51:23.393Z,56.77
2022-11-18T20:53:51.282Z,57.88
2022-11-18T20:56:20.096Z,55.89
2022-11-18T20:58:51.628Z,57.13
2022-11-18T21:01:20.548Z,55.49
2022-11-18T21:03:54.923Z,57.98
2022-11-18T21:06:23.546Z,56.16
2022-11-18T21:08:55.914Z,57.22
2022-11-18T21:11:24.229Z,56.06
2022-11-18T21:14:10.493Z,55.93
2022-11-18T21:16:38.350Z,57.42
2022-11-18T21:19:06.016Z,56.33
2022-11-18T21:21:45.768Z,59.70
2022-11-18T21:24:14.785Z,57.41
2022-11-18T21:26:42.337Z,57.17
2022-11-18T21:29:10.485Z,58.65
2022-11-18T21:31:38.067Z,57.05
2022-11-18T21:34:05.520Z,54.48
2022-11-18T21:36:32.628Z,56.63
2022-11-18T21:39:00.521Z,58.45
2022-11-18T21:41:27.991Z,56.92
2022-11-18T21:44:05.576Z,58.25
2022-11-18T21:46:33.928Z,57.62
2022-11-18T21:49:01.172Z,57.63
2022-11-18T21:51:28.364Z,58.59
2022-11-18T21:53:58.064Z,57.78
2022-11-18T21:56:25.626Z,57.00
2022-11-18T21:58:52.875Z,56.04
2022-11-18T22:01:21.116Z,57.60
2022-11-18T22:03:54.781Z,58.99
2022-11-18T22:06:23.205Z,59.59
2022-11-18T22:08:50.604Z,58.99
2022-11-18T22:11:17.730Z,56.99
2022-11-18T22:13:44.837Z,56.88
2022-11-18T22:16:13.243Z,57.93
2022-11-18T22:18:40.994Z,55.89
2022-11-18T22:21:10.156Z,59.02
2022-11-18T22:23:37.524Z,61.30
2022-11-18T22:26:07.669Z,59.21
2022-11-18T22:28:35.265Z,61.37
2022-11-18T22:31:03.498Z,57.60
2022-11-18T22:33:31.179Z,58.49
2022-11-18T22:36:08.783Z,56.05
2022-11-18T22:38:36.161Z,57.19
2022-11-18T22:41:04.264Z,56.55
2022-11-18T22:43:31.611Z,57.20
2022-11-18T22:46:06.674Z,57.15
2022-11-18T22:48:34.358Z,56.08
2022-11-18T22:51:02.532Z,59.42
2022-11-18T22:53:29.941Z,58.59
2022-11-18T22:56:07.043Z,58.02
2022-11-18T22:58:34.447Z,59.39
2022-11-18T23:01:08.623Z,57.36
2022-11-18T23:03:36.030Z,57.87
2022-11-18T23:06:21.460Z,59.06
2022-11-18T23:08:48.834Z,58.51
2022-11-18T23:11:39.432Z,57.87
2022-11-18T23:14:07.627Z,57.46
2022-11-18T23:16:35.841Z,55.41
2022-11-18T23:19:03.714Z,55.87
2022-11-18T23:21:31.127Z,56.61
2022-11-18T23:23:58.226Z,57.11
2022-11-18T23:26:25.869Z,54.13
2022-11-18T23:28:53.272Z,56.40
2022-11-18T23:31:22.828Z,56.66
2022-11-18T23:33:49.965Z,56.40
2022-11-18T23:36:18.061Z,55.05
2022-11-18T23:38:45.224Z,57.60
2022-11-18T23:41:14.435Z,59.07
2022-11-18T23:43:41.989Z,58.22
2022-11-18T23:46:09.476Z,58.22
2022-11-18T23:48:37.551Z,55.85
2022-11-18T23:51:05.925Z,53.70
2022-11-18T23:53:36.172Z,55.03
2022-11-18T23:56:10.336Z,56.68
2022-11-18T23:58:38.113Z,55.51
